Terminal Aerodrome Forecast
Issued by NWS Louisville, KY

Home | Current Version | Previous Version | Text Only | Print | Product List | Glossary On
Versions: 1 2 3 4 5 6 7 8 9 10 11 12 13 14 15 16 17
000
FTUS43 KLMK 010500
TAFLEX
TAF
KLEX 010520Z 0106/0206 06004KT 6SM HZ SKC
     FM010800 VRB03KT 3SM BR SCT005
      TEMPO 0111/0113 1SM BR BKN003
     FM011400 VRB04KT P6SM SCT040=

USA.gov is the U.S. government's official web portal to all federal, state and local government web resources and services.